Time;durP1;ratioP1;P1;durP2;ratioP2;P2;SDS_P1;SDS_P2;PMS_P1;PMS_P2;Temp;Humidity;BMP_temperature;BMP_pressure;BME280_temperature;BME280_humidity;BME280_pressure;Samples;Min_cycle;Max_cycle;Signal;HPM_P1;HPM_P2
2020/12/04 00:00:13;;;;;;;58.65;26.25;;;;;;;0.82;100.00;99576.88;10626282;82;21036;-82
2020/12/04 00:15:20;;;;;;;66.95;27.32;;;;;;;0.75;100.00;99547.63;10738410;81;21547;-83
2020/12/04 00:30:24;;;;;;;75.92;31.25;;;;;;;0.91;100.00;99563.90;10642391;82;21098;-83
2020/12/04 00:45:29;;;;;;;67.82;29.27;;;;;;;0.85;100.00;99523.41;10589571;82;21458;-81
2020/12/04 01:00:33;;;;;;;65.32;28.57;;;;;;;0.71;100.00;99501.79;10797324;82;21203;-80
2020/12/04 01:15:37;;;;;;;63.63;25.72;;;;;;;0.80;100.00;99528.83;10718661;82;21461;-81
2020/12/04 01:30:42;;;;;;;57.55;25.08;;;;;;;0.88;100.00;99511.12;10662215;83;21033;-81
2020/12/04 01:45:46;;;;;;;42.53;20.23;;;;;;;0.90;100.00;99484.75;10681195;82;21136;-81
2020/12/04 02:00:51;;;;;;;42.67;18.57;;;;;;;1.05;100.00;99451.16;10733536;82;21558;-81
2020/12/04 02:15:56;;;;;;;47.83;19.67;;;;;;;1.08;100.00;99453.55;10492128;83;21107;-81
2020/12/04 02:31:00;;;;;;;45.33;20.62;;;;;;;1.19;100.00;99394.73;10308904;85;21478;-83
2020/12/04 02:46:07;;;;;;;43.15;19.55;;;;;;;1.15;100.00;99453.07;10731524;81;21663;-80
2020/12/04 03:01:12;;;;;;;43.13;19.17;;;;;;;1.24;100.00;99379.77;10738365;82;21101;-86
2020/12/04 03:16:16;;;;;;;64.72;25.68;;;;;;;1.21;100.00;99392.89;10715398;82;21080;-85
2020/12/04 03:31:21;;;;;;;54.33;27.55;;;;;;;1.13;100.00;99368.83;10723357;82;21041;-85
2020/12/04 03:46:26;;;;;;;53.50;21.33;;;;;;;1.14;100.00;99371.79;10756079;82;21005;-85
2020/12/04 04:01:31;;;;;;;55.05;22.37;;;;;;;1.08;100.00;99365.27;10800946;82;21474;-81
2020/12/04 04:16:35;;;;;;;96.28;32.83;;;;;;;1.13;100.00;99345.58;10804152;82;21577;-80
2020/12/04 04:31:40;;;;;;;53.78;22.42;;;;;;;1.18;100.00;99349.99;10740467;81;21555;-82
2020/12/04 04:46:49;;;;;;;46.98;19.37;;;;;;;1.24;100.00;99334.55;10508522;83;21104;-81
2020/12/04 05:01:53;;;;;;;43.15;20.08;;;;;;;1.32;100.00;99342.19;10468703;84;21437;-81
2020/12/04 05:17:00;;;;;;;35.40;17.75;;;;;;;1.38;100.00;99333.67;10830099;80;22043;-82
2020/12/04 05:32:15;;;;;;;42.80;18.13;;;;;;;1.26;100.00;99298.64;10785964;80;21157;-80
2020/12/04 05:47:20;;;;;;;49.15;22.58;;;;;;;1.32;100.00;99330.55;10768263;80;21063;-84
2020/12/04 06:02:25;;;;;;;81.72;37.83;;;;;;;1.41;100.00;99294.25;10382424;83;21267;-83
2020/12/04 06:17:31;;;;;;;46.73;19.37;;;;;;;1.51;100.00;99298.33;10797209;80;21075;-80
2020/12/04 06:32:38;;;;;;;56.63;25.08;;;;;;;1.60;100.00;99313.23;10864800;82;21037;-81
2020/12/04 06:47:42;;;;;;;53.00;23.40;;;;;;;1.69;100.00;99284.66;10601123;83;21120;-80
2020/12/04 07:02:48;;;;;;;58.55;24.95;;;;;;;1.92;100.00;99324.47;10835057;82;21052;-79
2020/12/04 07:17:52;;;;;;;49.73;21.85;;;;;;;1.78;100.00;99285.33;10862370;82;21146;-81
2020/12/04 07:32:57;;;;;;;88.62;38.98;;;;;;;1.78;100.00;99285.33;10840692;82;21056;-82
2020/12/04 07:48:09;;;;;;;90.32;33.58;;;;;;;1.98;100.00;99285.27;10808159;80;21044;-81
2020/12/04 08:03:15;;;;;;;83.75;36.33;;;;;;;1.98;100.00;99285.27;10813562;80;21551;-79
2020/12/04 08:18:21;;;;;;;65.80;27.30;;;;;;;2.11;100.00;99274.06;10817360;80;21119;-80
2020/12/04 08:33:25;;;;;;;61.48;25.45;;;;;;;2.10;100.00;99284.05;10813755;80;21036;-80
2020/12/04 08:48:37;;;;;;;45.83;23.83;;;;;;;1.97;100.00;99275.84;10766534;81;21044;-81
2020/12/04 09:03:42;;;;;;;67.12;34.63;;;;;;;2.19;100.00;99303.30;10682101;82;21494;-81
2020/12/04 09:18:46;;;;;;;58.78;24.67;;;;;;;2.19;100.00;99303.30;10696306;82;21120;-82
2020/12/04 09:33:51;;;;;;;150.65;70.30;;;;;;;2.38;100.00;99282.16;10717894;82;21055;-81
2020/12/04 09:48:56;;;;;;;93.40;36.13;;;;;;;2.45;100.00;99214.28;10691369;81;21080;-81
2020/12/04 10:04:01;;;;;;;74.07;26.65;;;;;;;2.45;100.00;99214.28;10797964;81;21464;-82
2020/12/04 10:19:06;;;;;;;182.12;57.10;;;;;;;2.57;100.00;99225.52;10791202;81;21106;-82
2020/12/04 10:34:12;;;;;;;129.07;39.98;;;;;;;2.66;100.00;99195.08;10812150;81;21108;-81
2020/12/04 10:49:17;;;;;;;64.70;25.17;;;;;;;2.80;100.00;99246.37;10752686;81;21123;-81
2020/12/04 11:19:45;;;;;;;75.85;33.85;;;;;;;3.07;100.00;99204.65;10510315;82;21100;-80
2020/12/04 11:34:49;;;;;;;58.60;23.95;;;;;;;3.18;100.00;99210.80;10371718;83;21197;-83
2020/12/04 11:49:54;;;;;;;62.35;28.45;;;;;;;3.41;100.00;99193.06;10690112;81;21079;-80
2020/12/04 12:04:59;;;;;;;74.92;39.25;;;;;;;3.59;100.00;99183.06;10776059;80;21418;-79
2020/12/04 12:20:05;;;;;;;116.70;49.27;;;;;;;4.33;100.00;99186.88;10427477;84;21049;-83
2020/12/04 12:35:12;;;;;;;212.70;87.93;;;;;;;4.19;100.00;99194.94;10503141;82;21029;-81
2020/12/04 12:50:17;;;;;;;59.47;27.87;;;;;;;4.18;100.00;99189.38;10575908;82;21117;-81
2020/12/04 13:05:34;;;;;;;60.70;22.90;;;;;;;4.18;100.00;99183.70;10496105;83;22062;-81
2020/12/04 13:20:40;;;;;;;42.78;21.50;;;;;;;4.11;100.00;99174.28;10703658;82;21120;-81
2020/12/04 13:35:45;;;;;;;59.88;26.75;;;;;;;4.11;100.00;99183.37;10745545;82;21370;-81
2020/12/04 13:50:53;;;;;;;115.85;41.45;;;;;;;3.99;100.00;99181.75;10838722;82;21071;-79
2020/12/04 14:05:58;;;;;;;186.28;60.75;;;;;;;3.93;100.00;99186.11;10818507;81;21061;-81
2020/12/04 14:21:05;;;;;;;75.97;32.55;;;;;;;3.92;100.00;99167.12;10731008;82;21486;-81
2020/12/04 14:36:12;;;;;;;420.03;100.77;;;;;;;4.08;100.00;99190.56;10690946;80;21539;-81
2020/12/04 14:51:16;;;;;;;152.32;41.85;;;;;;;4.14;100.00;99235.06;10653125;82;21116;-81
2020/12/04 15:06:22;;;;;;;122.78;55.17;;;;;;;4.21;100.00;99234.56;10558125;82;21042;-81
2020/12/04 15:21:26;;;;;;;114.03;39.83;;;;;;;4.18;100.00;99223.13;10568898;83;21062;-81
2020/12/04 15:36:30;;;;;;;112.70;43.48;;;;;;;4.08;100.00;99206.98;10545385;83;21001;-81
2020/12/04 15:51:35;;;;;;;78.40;31.12;;;;;;;3.99;100.00;99231.87;10645183;82;21059;-81
2020/12/04 16:06:39;;;;;;;90.72;34.35;;;;;;;3.98;100.00;99246.27;10811297;82;21486;-82
2020/12/04 16:21:45;;;;;;;68.60;26.97;;;;;;;3.98;100.00;99228.09;10833656;82;21068;-82
2020/12/04 16:36:50;;;;;;;66.12;30.60;;;;;;;3.91;100.00;99245.10;10805248;82;21044;-81
2020/12/04 16:51:56;;;;;;;104.43;40.88;;;;;;;3.94;100.00;99248.75;10754451;82;21106;-81
2020/12/04 17:07:02;;;;;;;58.52;27.50;;;;;;;3.98;100.00;99263.13;10618035;83;21012;-81
2020/12/04 17:22:07;;;;;;;160.07;57.62;;;;;;;3.87;100.00;99260.52;10628131;83;21125;-81
2020/12/04 17:37:12;;;;;;;65.45;28.38;;;;;;;3.90;100.00;99248.63;10624601;83;21210;-82
2020/12/04 17:52:17;;;;;;;148.35;57.00;;;;;;;3.83;100.00;99258.66;10677207;82;21167;-82
2020/12/04 18:07:21;;;;;;;73.65;31.50;;;;;;;3.68;100.00;99268.89;10741505;81;21315;-82
2020/12/04 18:22:27;;;;;;;58.63;30.60;;;;;;;3.55;100.00;99258.61;10773291;82;21052;-81
2020/12/04 18:37:32;;;;;;;110.03;46.75;;;;;;;3.48;100.00;99274.65;10794973;82;20980;-82
2020/12/04 18:52:37;;;;;;;75.45;31.57;;;;;;;3.57;100.00;99273.59;10752784;82;21080;-81
2020/12/04 19:07:42;;;;;;;65.15;27.82;;;;;;;3.57;100.00;99279.59;10660612;82;21429;-81
2020/12/04 19:22:47;;;;;;;45.50;20.90;;;;;;;3.52;100.00;99286.08;10633308;82;21098;-81
2020/12/04 19:37:52;;;;;;;61.42;25.85;;;;;;;3.49;100.00;99287.13;10649954;82;21536;-82
2020/12/04 19:52:56;;;;;;;61.08;28.05;;;;;;;3.49;100.00;99302.69;10703114;81;21025;-81
2020/12/04 20:08:01;;;;;;;65.50;31.05;;;;;;;3.43;100.00;99295.36;10728030;82;21535;-81
2020/12/04 20:23:06;;;;;;;175.90;65.87;;;;;;;3.53;100.00;99315.78;10422869;84;21171;-81
2020/12/04 20:38:10;;;;;;;66.00;29.48;;;;;;;3.52;100.00;99331.46;10266156;85;21041;-81
2020/12/04 20:53:15;;;;;;;41.13;18.42;;;;;;;3.71;100.00;99320.08;10696289;81;21073;-82
2020/12/04 21:08:20;;;;;;;51.28;22.98;;;;;;;3.67;100.00;99313.47;10662557;82;21080;-82
2020/12/04 21:23:24;;;;;;;52.15;25.17;;;;;;;3.86;100.00;99333.66;10658524;82;21033;-84
2020/12/04 21:38:28;;;;;;;150.90;57.60;;;;;;;3.96;100.00;99350.20;10652616;82;21512;-86
2020/12/04 21:53:34;;;;;;;63.58;29.18;;;;;;;4.09;100.00;99354.45;10635072;81;21480;-83
2020/12/04 22:08:40;;;;;;;54.90;26.40;;;;;;;4.16;100.00;99386.80;10769275;81;21112;-82
2020/12/04 22:23:46;;;;;;;;;;;;;;;4.30;100.00;99377.95;10452307;84;21044;-81
2020/12/04 22:38:54;;;;;;;71.37;29.40;;;;;;;4.39;100.00;99390.23;10476591;83;20228;-80
2020/12/04 22:54:05;;;;;;;53.42;23.67;;;;;;;4.28;100.00;99395.44;10828938;81;21468;-82
2020/12/04 23:09:21;;;;;;;56.83;25.57;;;;;;;4.07;100.00;99398.70;10769453;82;21095;-80
2020/12/04 23:24:37;;;;;;;50.00;24.20;;;;;;;3.98;100.00;99398.09;10794984;82;21055;-80
2020/12/04 23:40:01;;;;;;;;;;;;;;;3.83;100.00;99386.61;10475179;84;21618;-80
2020/12/04 23:55:46;;;;;;;52.27;21.80;;;;;;;3.96;100.00;99387.02;10732817;81;20269;-79
